Aeroporto :
LOGIN :

Iscrizione | Disclaimer

   EN    FR    IT 

 










Sommario :    VFR   VFR Marginale   IFR   IFR Intensivo   IFR Molto Intensivo
Visibilità : 
Base nubi : 
>= 8 km
>= 3000ft
5 / 8 km
1000 / 3000 ft
1500m / 5 km
500 / 1000 ft
800 / 1500m
200 / 500 ft
< 800m
< 200 ft
Simboli :   Temporali  Nebbia  Neve Forte  Precipitazioni Forti  Vento > 20 kt
SIGMETs :   Varie  Temporali  Ghiacco  Turbolenza  Onda orograficha  Ceneri Vulcaniche






- Altitudine del aeroporto : 122 ft
- Codice IATA : TXL


EDDT - Berlin Tegel Int.

ULTIMO METAR :
  • 171650Z 04006KT 010V080 9000 NSC 06/05 Q1009 NOSIG

METARs OBSOLETI :
  • 171620Z 04007KT 010V070 9000 NSC 06/05 Q1009 NOSIG
  • 171550Z 04007KT 020V100 9000 FEW007 06/05 Q1009 NOSIG
  • 171520Z 04007KT 350V080 8000 SCT007 06/05 Q1009 NOSIG
  • 171450Z 04006KT 010V080 8000 BKN007 06/05 Q1010 NOSIG

TAF AMD TAF EDDT
Valido dal 17 a 13 ore il 18 a 12 ore UTC


171308Z 1713/1812 07008KT 6000 BKN015
BECMG 1713/1716 BKN010
TEMPO 1713/1721 3500 BR BKN005
BECMG 1721/1724 3000 BR
PROB30
TEMPO 1721/1806 0500 FG BKN001
BECMG 1806/1809 16009KT 6000



MetMap, La meteo Aeronautica in un colpo d'occhio ! - Copyright ORBIFLY Dicembre 2007 - Disclaimer

ORBIFLY MET'MAP TEAM :

Programmazione e sviluppo : Alexandra Zaïnal
Concezione e sviluppo : Baudouin d'Aumeries
Co-Programmazione e sviluppo : Marc-Olivier Méhu
Supporto tecnico e logistico : Manuel Goepfert
Aiuto per la traduzione : Arnaldo La Scala

Contatto : metmap@orbifly.com




FONTI E CREDITI :

   NOAA